Ana Sayfa
METAR-TAF:

METAR-TAF

Havaalanları :

Üsküp Havalimanı

Üsküp, Makedonya

Enlem: 41-58N, Boylam: 021-39E, yükseklik: 238 m

Güncel hava durumu gözlemi

Rapor saat 06:00 UTC de 21 dakika önce yapıldı.
Rüzgar değişken yönden 3 kt
Sıcaklık 27°C
Nem 51%
Basınç 1015 hPa
Görüş mesafesi 10 km veya daha fazla
5000 ft yükseklikte parçalı bulutlu

METAR: LWSK 240600Z VRB03KT 9999 SCT050 27/16 Q1015 NOSIG

Saat: 08:21 (06:21 UTC)

Tahmin

Rapor saat 05:30 UTC de 51 dakika önce yapıldı.
Ayın 24'si saat 06 UTC'den ayın 25'si saat 06 UTC'ye kadar geçerli Tahmin
Rüzgar değişken yönden 2 kt
Görüş mesafesi 10 km veya daha fazla
5000 ft yükseklikte az bulutlu
9000 ft yükseklikte parçalı bulutlu
Dönüşüyor
ayın 24'si saat 07 UTC'den ayın 24'si saat 09 UTC'ye kadar
Rüzgar kuzey/kuzeydoğudan 15 kt

TAF: LWSK 240530Z 2406/2506 VRB02KT 9999 FEW050 SCT090 BECMG 2407/2409 02015KT

4.000'den fazla havaalanı için hava durumu gözlemleri ve tahminleri (METAR ve TAF raporları).

Kullanılabilir istasyonlar harita üzerinde sarı ve kırmızı noktalarla gösterilir.

İstasyonun adını görmek için fareyi noktanın üzerinde gezdirin.

Sonrasında hava gözlem ve tahminlerini görmek için tıklayın.

Haritayı değiştirmek için: yaklaştırmak için siyah artı işaretli yeşil düğmeye ve uzaklaştırmak için de eksi işaretli düğmeye hızla tıklayın; bitişik haritalar için yeşil okları kullanın.


METAR-TAF: